Calgary (YYC/CYYC)

Information

Location
Calgary, AB, Canada
Local Time
23:45 / 11:45 pm
GMT Time
05:45 / 5:45 am
Gates
No FAA reported delays
METAR CYYC 190507Z 35006KT 340V040 15SM BKN260 02/M04 A2936 RMK CI5 SLP973 DENSITY ALT 3700FT
TAF TAF CYYC 190238Z 1903/1924 17012KT P6SM FEW180 BKN240 FM190500 22012KT P6SM BKN240 BECMG 1905/1907 25020G35KT FM191200 23012G22KT P6SM SCT280 BECMG 1914/1916 20008KT FM192100 20010KT P6SM SCT060 BKN280 RMK NXT FCST BY 190600Z